Time;durP1;ratioP1;P1;durP2;ratioP2;P2;SDS_P1;SDS_P2;PMS_P1;PMS_P2;Temp;Humidity;BMP_temperature;BMP_pressure;BME280_temperature;BME280_humidity;BME280_pressure;Samples;Min_cycle;Max_cycle;Signal;HPM_P1;HPM_P2
2023/01/17 00:01:47;;;;;;;6.82;5.60;;;;;;;;;;5094236;28;20189;-66
2023/01/17 00:09:55;;;;;;;5.38;4.88;;;;;;;;;;5094367;28;20182;-65
2023/01/17 00:12:23;;;;;;;5.55;5.05;;;;;;;;;;5093560;28;20224;-66
2023/01/17 00:14:52;;;;;;;6.05;5.00;;;;;;;;;;5094131;28;20196;-65
2023/01/17 00:17:21;;;;;;;5.00;4.60;;;;;;;;;;5093699;28;20350;-65
2023/01/17 01:34:39;;;;;;;5.05;4.65;;;;;;;;;;5076842;28;20320;-65
2023/01/17 01:37:06;;;;;;;5.65;5.15;;;;;;;;;;5076707;28;20195;-65
2023/01/17 01:39:34;;;;;;;3.97;3.67;;;;;;;;;;5076799;28;20570;-65
2023/01/17 01:42:02;;;;;;;3.75;3.45;;;;;;;;;;5076436;28;20193;-66
2023/01/17 01:44:43;;;;;;;2.95;2.75;;;;;;;;;;5076666;28;20213;-65
2023/01/17 01:47:11;;;;;;;3.35;3.05;;;;;;;;;;5076732;28;20254;-66
2023/01/17 01:49:38;;;;;;;3.65;3.35;;;;;;;;;;5076628;28;20197;-65
2023/01/17 01:52:07;;;;;;;5.55;3.35;;;;;;;;;;5076213;28;20203;-65
2023/01/17 01:54:37;;;;;;;3.38;3.08;;;;;;;;;;5076221;28;20675;-65
2023/01/17 01:57:07;;;;;;;3.15;2.85;;;;;;;;;;5076508;28;20676;-66
2023/01/17 01:59:34;;;;;;;3.10;2.83;;;;;;;;;;5076590;28;20194;-65
2023/01/17 02:02:02;;;;;;;2.30;2.20;;;;;;;;;;5076268;28;20193;-65
2023/01/17 02:04:29;;;;;;;3.40;3.10;;;;;;;;;;5075983;28;20211;-65
2023/01/17 02:06:58;;;;;;;2.80;2.60;;;;;;;;;;5076294;28;20531;-66
2023/01/17 02:09:25;;;;;;;2.17;2.00;;;;;;;;;;5075954;28;20684;-65
2023/01/17 02:11:54;;;;;;;3.00;2.80;;;;;;;;;;5076086;28;20234;-65
2023/01/17 02:14:23;;;;;;;2.63;2.42;;;;;;;;;;5076117;28;20201;-65
2023/01/17 02:16:55;;;;;;;2.53;2.35;;;;;;;;;;5075923;28;20200;-65
2023/01/17 02:19:38;;;;;;;2.08;1.98;;;;;;;;;;5075679;28;20187;-65
2023/01/17 02:22:16;;;;;;;1.95;1.85;;;;;;;;;;5075580;28;20756;-65
2023/01/17 02:25:07;;;;;;;1.90;1.80;;;;;;;;;;5076127;28;20742;-66
2023/01/17 02:27:40;;;;;;;1.58;1.48;;;;;;;;;;5060776;28;20196;-66
2023/01/17 02:30:22;;;;;;;1.70;1.60;;;;;;;;;;5075650;28;20184;-65
2023/01/17 02:32:56;;;;;;;1.50;1.40;;;;;;;;;;5075442;28;20196;-66
2023/01/17 02:35:29;;;;;;;1.38;1.27;;;;;;;;;;5076068;28;20185;-65
2023/01/17 02:38:01;;;;;;;1.30;1.20;;;;;;;;;;5075439;28;20185;-65
2023/01/17 02:40:31;;;;;;;1.30;1.20;;;;;;;;;;5076147;28;20191;-65
2023/01/17 02:43:01;;;;;;;1.27;1.10;;;;;;;;;;5075244;28;20195;-65
2023/01/17 02:45:30;;;;;;;3.13;1.52;;;;;;;;;;5075789;28;20223;-65
2023/01/17 02:47:57;;;;;;;2.33;1.27;;;;;;;;;;5075435;28;20197;-66
2023/01/17 02:50:26;;;;;;;2.45;1.30;;;;;;;;;;5075236;28;20199;-66
2023/01/17 02:53:03;;;;;;;1.05;1.05;;;;;;;;;;5075096;28;20669;-65
2023/01/17 02:55:37;;;;;;;2.10;1.40;;;;;;;;;;5075642;28;20194;-66
2023/01/17 02:58:09;;;;;;;0.90;0.90;;;;;;;;;;5075195;28;20193;-65
2023/01/17 03:00:44;;;;;;;1.33;1.20;;;;;;;;;;5075772;28;20197;-65
2023/01/17 03:03:14;;;;;;;1.02;1.02;;;;;;;;;;5075303;28;20189;-65
2023/01/17 03:05:45;;;;;;;1.08;1.08;;;;;;;;;;5074963;28;20202;-65
2023/01/17 03:08:12;;;;;;;1.90;1.10;;;;;;;;;;5075400;28;20518;-66
2023/01/17 03:10:40;;;;;;;1.02;1.02;;;;;;;;;;5075292;28;20218;-65
2023/01/17 03:13:07;;;;;;;0.90;0.90;;;;;;;;;;5074659;28;20240;-65
2023/01/17 03:15:34;;;;;;;3.60;3.33;;;;;;;;;;5074740;28;20202;-65
2023/01/17 03:18:05;;;;;;;0.90;0.90;;;;;;;;;;5074937;28;20234;-65
2023/01/17 03:20:32;;;;;;;1.10;1.00;;;;;;;;;;5074917;28;20199;-65
2023/01/17 03:22:59;;;;;;;1.33;1.20;;;;;;;;;;5074821;28;20194;-66
2023/01/17 03:25:27;;;;;;;1.00;1.00;;;;;;;;;;5075112;28;20227;-66
2023/01/17 03:27:54;;;;;;;0.90;0.90;;;;;;;;;;5074791;28;20195;-65
2023/01/17 03:30:21;;;;;;;0.90;0.90;;;;;;;;;;5074384;28;20200;-65
2023/01/17 03:32:49;;;;;;;0.90;0.90;;;;;;;;;;5074309;28;20196;-66
2023/01/17 03:35:17;;;;;;;0.90;0.90;;;;;;;;;;5074074;28;20207;-66
2023/01/17 03:37:45;;;;;;;0.90;0.90;;;;;;;;;;5074727;28;20283;-65
2023/01/17 03:40:12;;;;;;;1.63;1.10;;;;;;;;;;5074733;28;20203;-65
2023/01/17 03:42:39;;;;;;;1.00;1.00;;;;;;;;;;5074776;28;20247;-66
2023/01/17 03:45:07;;;;;;;1.10;1.10;;;;;;;;;;5073936;28;20225;-66
2023/01/17 03:47:35;;;;;;;0.90;0.90;;;;;;;;;;5074064;28;20208;-65
2023/01/17 03:50:02;;;;;;;1.00;1.00;;;;;;;;;;5074196;28;20205;-66
2023/01/17 03:52:31;;;;;;;2.20;1.10;;;;;;;;;;5074394;28;20200;-66
2023/01/17 03:54:58;;;;;;;0.90;0.90;;;;;;;;;;5074428;28;20195;-66
2023/01/17 03:57:25;;;;;;;1.02;1.00;;;;;;;;;;5074204;28;20206;-66
2023/01/17 03:59:52;;;;;;;1.13;1.02;;;;;;;;;;5073754;28;20203;-66
2023/01/17 04:02:20;;;;;;;1.10;1.00;;;;;;;;;;5073856;28;20649;-66
2023/01/17 04:04:47;;;;;;;1.10;1.10;;;;;;;;;;5074174;28;20592;-65
2023/01/17 04:07:14;;;;;;;1.35;1.25;;;;;;;;;;5074042;28;20201;-66
2023/01/17 04:09:42;;;;;;;1.20;1.10;;;;;;;;;;5073627;28;20207;-66
2023/01/17 04:12:10;;;;;;;1.00;1.00;;;;;;;;;;5073618;28;20239;-65
2023/01/17 04:14:37;;;;;;;1.00;1.00;;;;;;;;;;5073892;28;20213;-66
2023/01/17 04:17:04;;;;;;;1.27;1.25;;;;;;;;;;5073898;28;20196;-66
2023/01/17 04:19:32;;;;;;;1.20;1.10;;;;;;;;;;5074150;28;20197;-66
2023/01/17 04:21:59;;;;;;;2.13;1.10;;;;;;;;;;5074063;28;20564;-66
2023/01/17 04:24:26;;;;;;;4.25;1.10;;;;;;;;;;5073652;28;20225;-66
2023/01/17 04:26:55;;;;;;;2.15;1.10;;;;;;;;;;5073945;28;20191;-66
2023/01/17 04:29:22;;;;;;;1.05;1.00;;;;;;;;;;5073902;28;20291;-66
2023/01/17 04:31:49;;;;;;;1.90;1.17;;;;;;;;;;5073975;28;20194;-66
2023/01/17 04:34:16;;;;;;;1.10;1.10;;;;;;;;;;5073584;28;20209;-65
2023/01/17 04:36:44;;;;;;;2.08;1.30;;;;;;;;;;5073353;28;20248;-65
2023/01/17 04:39:11;;;;;;;1.27;1.23;;;;;;;;;;5073667;28;20289;-66
2023/01/17 04:41:38;;;;;;;1.00;1.00;;;;;;;;;;5073482;28;20203;-72
2023/01/17 04:44:07;;;;;;;1.20;1.10;;;;;;;;;;5073398;28;20219;-65
2023/01/17 04:46:34;;;;;;;1.38;1.27;;;;;;;;;;5072750;28;20202;-65
2023/01/17 04:49:01;;;;;;;1.42;1.30;;;;;;;;;;5073437;28;20208;-66
2023/01/17 04:51:28;;;;;;;1.27;1.20;;;;;;;;;;5073492;28;20200;-65
2023/01/17 04:53:55;;;;;;;3.05;1.60;;;;;;;;;;5073546;28;20225;-65
2023/01/17 04:56:23;;;;;;;1.33;1.25;;;;;;;;;;5073309;28;20289;-65
2023/01/17 04:58:50;;;;;;;1.48;1.38;;;;;;;;;;5073307;28;20200;-65
2023/01/17 05:01:18;;;;;;;2.20;2.00;;;;;;;;;;5093173;28;20228;-65
2023/01/17 05:03:45;;;;;;;1.60;1.50;;;;;;;;;;5093560;28;20195;-65
2023/01/17 05:06:13;;;;;;;1.70;1.60;;;;;;;;;;5093064;28;20245;-65
2023/01/17 05:08:40;;;;;;;2.15;1.80;;;;;;;;;;5093479;28;20202;-65
2023/01/17 05:11:07;;;;;;;2.25;1.85;;;;;;;;;;5093278;28;20227;-65
2023/01/17 05:13:34;;;;;;;2.80;2.20;;;;;;;;;;5093187;28;20656;-66
2023/01/17 05:16:01;;;;;;;3.17;2.90;;;;;;;;;;5093468;28;20196;-65
2023/01/17 05:18:30;;;;;;;2.40;2.20;;;;;;;;;;5093662;28;20205;-65
2023/01/17 05:21:01;;;;;;;3.42;3.13;;;;;;;;;;5093216;28;20191;-65
2023/01/17 05:23:28;;;;;;;4.53;3.10;;;;;;;;;;5093412;28;20193;-65
2023/01/17 05:25:55;;;;;;;3.88;3.55;;;;;;;;;;5092850;28;20227;-65
2023/01/17 05:28:23;;;;;;;4.57;3.67;;;;;;;;;;5093023;28;20205;-66
2023/01/17 05:30:50;;;;;;;3.80;3.40;;;;;;;;;;5092710;28;20190;-65
2023/01/17 05:33:17;;;;;;;3.88;3.30;;;;;;;;;;5092855;28;20744;-65
2023/01/17 05:35:45;;;;;;;5.85;3.60;;;;;;;;;;5093336;28;20221;-65
2023/01/17 05:38:13;;;;;;;5.03;4.28;;;;;;;;;;5093599;28;20200;-65
2023/01/17 05:40:40;;;;;;;6.30;4.20;;;;;;;;;;5092707;28;20191;-65
2023/01/17 05:43:07;;;;;;;4.93;4.50;;;;;;;;;;5093264;28;20231;-65
2023/01/17 05:45:35;;;;;;;6.10;4.95;;;;;;;;;;5093322;28;20219;-65
2023/01/17 05:48:02;;;;;;;4.85;4.18;;;;;;;;;;5093171;28;20578;-65
2023/01/17 05:50:30;;;;;;;12.57;4.10;;;;;;;;;;5093013;28;20195;-65
2023/01/17 05:53:00;;;;;;;4.53;3.97;;;;;;;;;;5093068;28;20225;-65
2023/01/17 05:55:28;;;;;;;6.55;4.18;;;;;;;;;;5092709;28;20621;-65
2023/01/17 05:57:55;;;;;;;4.43;4.03;;;;;;;;;;5095433;28;20195;-65
2023/01/17 06:00:23;;;;;;;4.55;3.40;;;;;;;;;;5096679;28;20219;-65
2023/01/17 06:02:50;;;;;;;4.20;3.75;;;;;;;;;;5096732;28;20202;-66
2023/01/17 06:05:18;;;;;;;4.47;3.90;;;;;;;;;;5096811;28;20290;-66
2023/01/17 06:07:45;;;;;;;5.93;4.93;;;;;;;;;;5095880;28;20197;-66
2023/01/17 06:10:15;;;;;;;4.13;3.72;;;;;;;;;;5096095;28;20286;-66
2023/01/17 06:12:42;;;;;;;5.65;4.15;;;;;;;;;;5096433;28;20230;-66
2023/01/17 06:15:09;;;;;;;5.70;5.10;;;;;;;;;;5096355;28;20204;-66
2023/01/17 06:17:37;;;;;;;4.05;3.30;;;;;;;;;;5096422;28;20199;-66
2023/01/17 06:20:05;;;;;;;3.45;3.15;;;;;;;;;;5096144;28;20216;-67
2023/01/17 06:22:32;;;;;;;6.10;4.18;;;;;;;;;;5095868;28;20714;-67
2023/01/17 06:25:00;;;;;;;4.78;4.28;;;;;;;;;;5095845;28;20224;-66
2023/01/17 06:27:28;;;;;;;5.45;4.43;;;;;;;;;;5096200;28;20289;-66
2023/01/17 06:29:55;;;;;;;7.93;4.45;;;;;;;;;;5096080;28;20202;-66
2023/01/17 06:32:23;;;;;;;5.43;4.60;;;;;;;;;;5096123;28;20194;-66
2023/01/17 06:34:50;;;;;;;7.30;5.00;;;;;;;;;;5096110;28;20202;-66
2023/01/17 06:37:17;;;;;;;6.28;3.78;;;;;;;;;;5095878;28;20201;-66
2023/01/17 06:39:44;;;;;;;6.55;4.93;;;;;;;;;;5096112;28;20217;-66
2023/01/17 06:42:11;;;;;;;7.78;4.07;;;;;;;;;;5096057;28;20669;-67
2023/01/17 06:44:40;;;;;;;5.90;4.32;;;;;;;;;;5096310;28;20244;-67
2023/01/17 06:47:07;;;;;;;9.93;4.75;;;;;;;;;;5095789;28;20221;-67
2023/01/17 06:49:34;;;;;;;4.35;3.95;;;;;;;;;;5095556;28;20198;-66
2023/01/17 06:52:01;;;;;;;5.53;4.47;;;;;;;;;;5094882;28;20287;-66
2023/01/17 06:54:29;;;;;;;5.60;4.90;;;;;;;;;;5095447;28;20190;-64
2023/01/17 06:56:56;;;;;;;5.45;3.53;;;;;;;;;;5095020;28;20200;-65
2023/01/17 06:59:23;;;;;;;5.28;4.03;;;;;;;;;;5095132;28;20202;-66
2023/01/17 07:01:51;;;;;;;5.72;4.85;;;;;;;;;;5095734;28;20611;-65
2023/01/17 07:04:20;;;;;;;4.20;3.83;;;;;;;;;;5095442;28;20191;-65
2023/01/17 07:06:47;;;;;;;4.57;3.80;;;;;;;;;;5095081;28;20731;-65
2023/01/17 07:09:15;;;;;;;5.25;4.45;;;;;;;;;;5094105;28;20649;-65
2023/01/17 07:11:44;;;;;;;4.22;3.75;;;;;;;;;;5095238;28;20234;-65
2023/01/17 07:14:13;;;;;;;8.77;5.07;;;;;;;;;;5095354;28;20195;-65
2023/01/17 07:16:44;;;;;;;7.43;5.38;;;;;;;;;;5095108;28;20202;-65
2023/01/17 07:19:12;;;;;;;7.95;4.70;;;;;;;;;;5095476;28;20192;-66
2023/01/17 07:21:40;;;;;;;6.55;4.10;;;;;;;;;;5095008;28;20203;-65
2023/01/17 07:24:07;;;;;;;6.20;4.85;;;;;;;;;;5095092;28;20199;-65
2023/01/17 07:26:36;;;;;;;9.82;5.10;;;;;;;;;;5095009;28;20579;-66
2023/01/17 07:29:04;;;;;;;7.40;4.82;;;;;;;;;;5094994;28;20204;-65
2023/01/17 07:31:32;;;;;;;4.72;4.32;;;;;;;;;;5094568;28;20222;-65
2023/01/17 07:34:00;;;;;;;5.65;4.80;;;;;;;;;;5094639;28;20286;-65
2023/01/17 07:36:29;;;;;;;6.32;4.50;;;;;;;;;;5094780;28;20255;-66
2023/01/17 07:38:56;;;;;;;5.35;4.85;;;;;;;;;;5094759;28;20282;-65
2023/01/17 07:41:23;;;;;;;6.55;5.50;;;;;;;;;;5094747;28;20228;-65
2023/01/17 07:43:51;;;;;;;7.97;5.50;;;;;;;;;;5094647;28;20247;-65
2023/01/17 07:46:18;;;;;;;11.90;5.50;;;;;;;;;;5094357;28;20227;-65
2023/01/17 07:48:45;;;;;;;5.90;5.18;;;;;;;;;;5094235;28;20205;-65
2023/01/17 07:51:12;;;;;;;7.18;5.60;;;;;;;;;;5094645;28;20235;-65
2023/01/17 07:53:41;;;;;;;9.85;4.88;;;;;;;;;;5094560;28;20197;-65
2023/01/17 07:56:08;;;;;;;9.45;5.75;;;;;;;;;;5094462;28;20294;-65
2023/01/17 07:58:36;;;;;;;10.02;6.50;;;;;;;;;;5094357;28;20650;-65
2023/01/17 08:01:03;;;;;;;5.63;4.60;;;;;;;;;;5094926;28;20200;-65
2023/01/17 08:03:33;;;;;;;5.35;4.20;;;;;;;;;;5093928;28;20222;-65
2023/01/17 08:06:01;;;;;;;4.45;3.80;;;;;;;;;;5094342;28;20315;-64
2023/01/17 08:08:28;;;;;;;6.75;4.40;;;;;;;;;;5093647;28;20209;-65
2023/01/17 08:10:57;;;;;;;6.50;4.30;;;;;;;;;;5093991;28;20194;-65
2023/01/17 08:13:24;;;;;;;7.60;4.85;;;;;;;;;;5094120;28;20189;-65
2023/01/17 08:15:53;;;;;;;7.05;4.47;;;;;;;;;;5094275;28;20206;-65
2023/01/17 08:18:20;;;;;;;6.70;4.80;;;;;;;;;;5094108;28;20204;-65
2023/01/17 08:20:47;;;;;;;5.00;4.07;;;;;;;;;;5093796;28;20198;-65
2023/01/17 08:23:15;;;;;;;8.25;6.13;;;;;;;;;;5093942;28;20279;-65
2023/01/17 08:25:42;;;;;;;6.07;4.45;;;;;;;;;;5093962;28;20575;-65
2023/01/17 08:28:10;;;;;;;8.27;5.38;;;;;;;;;;5093898;28;20532;-65
2023/01/17 08:30:38;;;;;;;9.85;4.47;;;;;;;;;;5094016;28;20221;-65
2023/01/17 08:33:05;;;;;;;10.45;5.72;;;;;;;;;;5094371;28;20198;-65
2023/01/17 08:35:32;;;;;;;6.25;4.68;;;;;;;;;;5093559;28;20676;-65
2023/01/17 08:38:03;;;;;;;8.10;4.95;;;;;;;;;;5093802;28;20295;-65
2023/01/17 08:40:30;;;;;;;11.10;6.25;;;;;;;;;;5094003;28;20274;-65
2023/01/17 08:42:58;;;;;;;7.32;4.82;;;;;;;;;;5093821;28;20258;-67
2023/01/17 08:45:27;;;;;;;6.85;5.32;;;;;;;;;;5093679;28;20213;-65
2023/01/17 08:47:54;;;;;;;7.75;5.30;;;;;;;;;;5093446;28;20193;-65
2023/01/17 08:50:23;;;;;;;7.70;5.30;;;;;;;;;;5093347;28;20200;-65
2023/01/17 08:52:52;;;;;;;8.90;5.88;;;;;;;;;;5093574;28;20192;-65
2023/01/17 08:55:19;;;;;;;12.02;6.85;;;;;;;;;;5093260;28;20195;-65
2023/01/17 08:57:46;;;;;;;18.50;6.53;;;;;;;;;;5093154;28;20192;-65
2023/01/17 09:00:14;;;;;;;6.03;5.43;;;;;;;;;;5093284;28;20197;-65
2023/01/17 09:02:42;;;;;;;9.02;5.88;;;;;;;;;;5093443;28;20287;-65
2023/01/17 09:05:10;;;;;;;10.95;5.95;;;;;;;;;;5093485;28;20202;-65
2023/01/17 09:07:37;;;;;;;10.15;6.00;;;;;;;;;;5093938;28;20191;-65
2023/01/17 09:10:05;;;;;;;8.70;5.60;;;;;;;;;;5093370;28;20201;-65
2023/01/17 09:12:33;;;;;;;11.48;6.07;;;;;;;;;;5093320;28;20313;-65
2023/01/17 09:15:01;;;;;;;14.80;6.38;;;;;;;;;;5093027;28;20205;-65
2023/01/17 09:17:28;;;;;;;17.30;6.30;;;;;;;;;;5093277;28;20207;-65
2023/01/17 09:19:58;;;;;;;9.98;7.45;;;;;;;;;;5093302;28;20555;-65
2023/01/17 09:22:25;;;;;;;9.07;5.60;;;;;;;;;;5093565;28;20195;-65
2023/01/17 09:24:53;;;;;;;12.10;6.93;;;;;;;;;;5093520;28;20555;-65
2023/01/17 09:27:20;;;;;;;18.17;7.80;;;;;;;;;;5093248;28;20245;-65
2023/01/17 09:29:47;;;;;;;6.63;4.72;;;;;;;;;;5093361;28;20557;-65
2023/01/17 09:32:15;;;;;;;15.10;7.13;;;;;;;;;;5094564;28;20192;-65
2023/01/17 09:34:43;;;;;;;10.80;6.75;;;;;;;;;;5096939;28;20196;-64
2023/01/17 09:37:11;;;;;;;13.43;7.72;;;;;;;;;;5097446;28;20203;-64
2023/01/17 09:39:38;;;;;;;10.73;7.00;;;;;;;;;;5096791;28;20205;-65
2023/01/17 09:42:17;;;;;;;9.90;6.95;;;;;;;;;;5097295;28;20198;-65
2023/01/17 09:44:46;;;;;;;13.25;7.47;;;;;;;;;;5097114;28;20237;-64
2023/01/17 09:47:19;;;;;;;12.75;7.55;;;;;;;;;;5096725;28;20229;-65
2023/01/17 09:49:47;;;;;;;12.43;8.25;;;;;;;;;;5096840;28;20643;-65
2023/01/17 09:52:18;;;;;;;15.48;9.00;;;;;;;;;;5096657;28;20207;-65
2023/01/17 09:54:47;;;;;;;14.63;8.63;;;;;;;;;;5096476;28;20204;-65
2023/01/17 09:57:18;;;;;;;20.80;8.95;;;;;;;;;;5096721;28;20213;-65
2023/01/17 09:59:50;;;;;;;15.82;9.68;;;;;;;;;;5097099;28;20194;-65
2023/01/17 10:02:25;;;;;;;12.32;8.40;;;;;;;;;;5096965;28;20274;-65
2023/01/17 10:05:01;;;;;;;13.40;7.75;;;;;;;;;;5096248;28;20189;-65
2023/01/17 10:07:35;;;;;;;17.13;10.80;;;;;;;;;;5096674;28;20217;-65
2023/01/17 10:10:09;;;;;;;13.13;9.77;;;;;;;;;;5096968;28;20199;-65
2023/01/17 10:12:40;;;;;;;18.75;10.38;;;;;;;;;;5096967;28;20221;-65
2023/01/17 10:15:20;;;;;;;18.90;9.98;;;;;;;;;;5096460;28;20183;-65
2023/01/17 10:17:53;;;;;;;13.70;9.05;;;;;;;;;;5096695;28;20191;-65
2023/01/17 10:20:34;;;;;;;22.73;10.05;;;;;;;;;;5095944;28;20245;-65
2023/01/17 10:23:12;;;;;;;14.32;9.05;;;;;;;;;;5096619;28;20272;-65
2023/01/17 10:25:42;;;;;;;16.15;10.50;;;;;;;;;;5096423;28;20253;-65
2023/01/17 10:28:13;;;;;;;18.73;10.50;;;;;;;;;;5096182;28;20258;-65
2023/01/17 10:30:43;;;;;;;15.82;9.55;;;;;;;;;;5096448;28;20195;-65
2023/01/17 10:33:13;;;;;;;19.52;9.55;;;;;;;;;;5096167;28;20209;-65
2023/01/17 10:35:43;;;;;;;21.08;10.30;;;;;;;;;;5095729;28;20281;-65
2023/01/17 10:38:13;;;;;;;18.30;11.18;;;;;;;;;;5096022;28;20196;-65
2023/01/17 10:40:43;;;;;;;20.45;11.15;;;;;;;;;;5095859;28;20281;-65
2023/01/17 10:43:14;;;;;;;13.38;10.30;;;;;;;;;;5096132;28;20286;-65
2023/01/17 10:45:44;;;;;;;19.50;11.32;;;;;;;;;;5095945;28;20625;-65
2023/01/17 10:48:13;;;;;;;22.80;10.85;;;;;;;;;;5095873;28;20280;-65
2023/01/17 10:50:47;;;;;;;15.43;9.95;;;;;;;;;;5095872;28;20202;-65
2023/01/17 10:53:23;;;;;;;14.10;10.45;;;;;;;;;;5095546;28;20182;-65
2023/01/17 10:55:53;;;;;;;18.92;12.27;;;;;;;;;;5095774;28;20273;-65
2023/01/17 10:58:20;;;;;;;19.67;12.07;;;;;;;;;;5095832;28;20544;-65
2023/01/17 11:00:49;;;;;;;19.27;12.80;;;;;;;;;;5095348;28;20191;-65
2023/01/17 11:03:19;;;;;;;32.65;13.77;;;;;;;;;;5095762;28;20220;-65
2023/01/17 11:05:47;;;;;;;22.98;12.45;;;;;;;;;;5095482;28;20276;-65
2023/01/17 11:08:14;;;;;;;21.52;12.48;;;;;;;;;;5095452;28;20205;-65
2023/01/17 11:10:47;;;;;;;18.15;11.23;;;;;;;;;;5095212;28;20202;-65
2023/01/17 11:13:24;;;;;;;18.95;13.05;;;;;;;;;;5095119;28;20663;-65
2023/01/17 11:15:52;;;;;;;21.85;10.82;;;;;;;;;;5094969;28;20213;-67
2023/01/17 11:18:20;;;;;;;23.95;14.05;;;;;;;;;;5094902;28;20681;-66
2023/01/17 11:20:49;;;;;;;17.65;12.73;;;;;;;;;;5095043;28;20192;-65
2023/01/17 11:23:17;;;;;;;26.67;13.23;;;;;;;;;;5094721;28;20711;-65
2023/01/17 11:25:51;;;;;;;26.02;14.60;;;;;;;;;;5095132;28;20646;-65
2023/01/17 11:28:21;;;;;;;22.10;13.23;;;;;;;;;;5095095;28;20298;-65
2023/01/17 11:30:52;;;;;;;18.88;12.85;;;;;;;;;;5094909;28;20622;-65
2023/01/17 11:33:28;;;;;;;25.98;14.07;;;;;;;;;;5095087;28;20264;-65
2023/01/17 11:35:55;;;;;;;30.88;13.05;;;;;;;;;;5095167;28;20184;-66
2023/01/17 11:38:25;;;;;;;23.58;14.15;;;;;;;;;;5095264;28;20227;-65
2023/01/17 11:41:18;;;;;;;20.42;13.50;;;;;;;;;;5094859;28;20551;-66
2023/01/17 11:43:49;;;;;;;20.95;12.02;;;;;;;;;;5094786;28;20268;-66
2023/01/17 11:46:17;;;;;;;17.08;11.40;;;;;;;;;;5094810;28;20219;-66
2023/01/17 11:48:47;;;;;;;20.73;12.32;;;;;;;;;;5094665;28;20248;-66
2023/01/17 11:51:19;;;;;;;15.38;10.20;;;;;;;;;;5094271;28;20674;-65
2023/01/17 11:53:47;;;;;;;23.73;10.55;;;;;;;;;;5095286;28;20189;-65
2023/01/17 11:56:21;;;;;;;21.20;12.32;;;;;;;;;;5094246;28;20255;-65
2023/01/17 11:58:49;;;;;;;21.63;12.18;;;;;;;;;;5094909;28;20206;-65
2023/01/17 12:01:26;;;;;;;21.20;12.23;;;;;;;;;;5094279;28;20219;-65
2023/01/17 12:04:12;;;;;;;22.13;13.57;;;;;;;;;;5095037;28;20183;-65
2023/01/17 12:06:45;;;;;;;21.27;12.00;;;;;;;;;;5084353;28;20703;-65
2023/01/17 12:09:21;;;;;;;24.35;12.75;;;;;;;;;;5094643;28;20191;-65
2023/01/17 12:14:43;;;;;;;15.90;10.93;;;;;;;;;;5094241;28;20188;-65
2023/01/17 12:17:14;;;;;;;17.05;11.35;;;;;;;;;;5094247;28;20193;-65
2023/01/17 12:19:53;;;;;;;14.73;10.30;;;;;;;;;;5094838;28;20189;-65
2023/01/17 12:22:32;;;;;;;16.33;11.60;;;;;;;;;;5093741;28;20205;-65
2023/01/17 12:25:06;;;;;;;16.27;11.07;;;;;;;;;;5093767;28;20187;-65
2023/01/17 12:27:40;;;;;;;12.55;9.77;;;;;;;;;;5093948;28;20222;-65
2023/01/17 12:30:17;;;;;;;15.45;11.05;;;;;;;;;;5093783;28;20184;-65
2023/01/17 12:32:54;;;;;;;21.25;9.70;;;;;;;;;;5094133;28;20205;-65
2023/01/17 12:35:25;;;;;;;18.27;10.32;;;;;;;;;;5094499;28;20188;-67
2023/01/17 12:37:55;;;;;;;23.52;10.60;;;;;;;;;;5093620;28;20195;-66
2023/01/17 12:40:24;;;;;;;20.48;11.48;;;;;;;;;;5093695;28;20273;-66
2023/01/17 12:42:55;;;;;;;20.30;12.50;;;;;;;;;;5093563;28;20243;-65
2023/01/17 12:45:25;;;;;;;18.92;10.65;;;;;;;;;;5093711;28;20190;-65
2023/01/17 12:47:57;;;;;;;26.52;13.23;;;;;;;;;;5093575;28;20686;-65
2023/01/17 12:50:27;;;;;;;15.70;11.23;;;;;;;;;;5093773;28;20188;-66
2023/01/17 12:52:59;;;;;;;17.52;12.10;;;;;;;;;;5094300;28;20537;-65
2023/01/17 12:55:33;;;;;;;20.02;12.05;;;;;;;;;;5094627;28;20216;-66
2023/01/17 12:58:03;;;;;;;27.55;13.18;;;;;;;;;;5093907;28;20533;-66
2023/01/17 13:00:31;;;;;;;16.42;11.00;;;;;;;;;;5093520;28;20625;-67
2023/01/17 13:03:05;;;;;;;17.27;11.57;;;;;;;;;;5093512;28;20551;-66
2023/01/17 13:05:36;;;;;;;20.00;12.07;;;;;;;;;;5093568;28;20183;-66
2023/01/17 13:08:07;;;;;;;18.95;10.60;;;;;;;;;;5096483;28;20298;-66
2023/01/17 13:10:35;;;;;;;15.85;10.93;;;;;;;;;;5097989;28;20182;-66
2023/01/17 13:13:12;;;;;;;19.00;12.00;;;;;;;;;;5097164;28;20241;-66
2023/01/17 13:15:40;;;;;;;17.40;12.70;;;;;;;;;;5097966;28;20273;-66
2023/01/17 13:18:11;;;;;;;20.55;11.57;;;;;;;;;;5097507;28;20292;-66
2023/01/17 13:20:48;;;;;;;20.42;12.50;;;;;;;;;;5098272;28;20191;-66
2023/01/17 13:23:19;;;;;;;17.42;12.32;;;;;;;;;;5097486;28;20181;-66
2023/01/17 13:25:48;;;;;;;18.38;12.60;;;;;;;;;;5097606;28;20538;-66
2023/01/17 13:28:23;;;;;;;15.70;11.90;;;;;;;;;;5097357;28;20224;-67
2023/01/17 13:31:01;;;;;;;18.92;12.75;;;;;;;;;;5097886;28;20550;-63
2023/01/17 13:33:32;;;;;;;22.38;12.40;;;;;;;;;;5097315;28;20187;-65
2023/01/17 13:36:06;;;;;;;15.70;11.55;;;;;;;;;;5097086;28;20193;-66
2023/01/17 13:38:54;;;;;;;19.58;12.60;;;;;;;;;;5097360;28;20203;-64
2023/01/17 13:41:32;;;;;;;15.88;12.15;;;;;;;;;;5088520;28;20198;-64
2023/01/17 13:46:53;;;;;;;17.20;10.95;;;;;;;;;;5096833;28;20329;-64
2023/01/17 13:49:22;;;;;;;18.83;13.38;;;;;;;;;;5097073;28;20570;-63
2023/01/17 13:52:03;;;;;;;18.63;13.30;;;;;;;;;;5097250;28;20251;-70
2023/01/17 13:54:31;;;;;;;17.45;12.70;;;;;;;;;;5096545;28;20210;-66
2023/01/17 13:57:13;;;;;;;21.67;12.35;;;;;;;;;;5096926;28;20560;-65
2023/01/17 13:59:41;;;;;;;17.63;11.65;;;;;;;;;;5096307;28;20197;-65
2023/01/17 14:02:23;;;;;;;21.33;12.80;;;;;;;;;;5092545;28;20545;-63
2023/01/17 14:05:07;;;;;;;20.52;11.70;;;;;;;;;;5078375;28;20214;-66
2023/01/17 14:07:35;;;;;;;14.70;11.48;;;;;;;;;;5095596;28;20310;-66
2023/01/17 14:10:02;;;;;;;20.33;12.85;;;;;;;;;;5096124;28;20286;-66
2023/01/17 14:12:33;;;;;;;21.08;12.27;;;;;;;;;;5096025;28;20230;-66
2023/01/17 14:15:06;;;;;;;18.48;11.93;;;;;;;;;;5096694;28;20693;-66
2023/01/17 14:17:48;;;;;;;26.25;12.55;;;;;;;;;;5095665;28;20231;-66
2023/01/17 14:20:34;;;;;;;17.45;10.15;;;;;;;;;;5096949;28;20179;-66
2023/01/17 14:23:02;;;;;;;16.63;10.25;;;;;;;;;;5096375;28;20194;-66
2023/01/17 14:25:30;;;;;;;17.08;11.82;;;;;;;;;;5096311;28;20202;-66
2023/01/17 14:28:00;;;;;;;21.80;13.25;;;;;;;;;;5095852;28;20257;-66
2023/01/17 14:30:29;;;;;;;16.75;10.32;;;;;;;;;;5096289;28;20283;-66
2023/01/17 14:33:07;;;;;;;17.98;9.90;;;;;;;;;;5096435;28;20197;-64
2023/01/17 14:35:36;;;;;;;14.82;9.32;;;;;;;;;;5095660;28;20279;-65
2023/01/17 14:38:04;;;;;;;15.40;9.63;;;;;;;;;;5095998;28;20200;-66
2023/01/17 14:40:32;;;;;;;20.30;10.40;;;;;;;;;;5096426;28;20207;-64
2023/01/17 14:43:01;;;;;;;23.02;11.45;;;;;;;;;;5095887;28;20204;-64
2023/01/17 14:45:30;;;;;;;18.25;9.88;;;;;;;;;;5095975;28;20196;-66
2023/01/17 14:47:58;;;;;;;20.52;10.95;;;;;;;;;;5095475;28;20252;-66
2023/01/17 14:50:28;;;;;;;14.52;9.40;;;;;;;;;;5095564;28;20201;-66
2023/01/17 14:53:28;;;;;;;16.25;10.82;;;;;;;;;;5095885;28;20195;-66
2023/01/17 14:55:59;;;;;;;19.02;9.25;;;;;;;;;;5033255;28;20196;-63
2023/01/17 14:58:28;;;;;;;12.90;9.55;;;;;;;;;;5033003;28;20202;-63
2023/01/17 15:00:58;;;;;;;20.23;10.95;;;;;;;;;;5063755;28;20516;-66
2023/01/17 15:03:26;;;;;;;21.00;10.00;;;;;;;;;;5095325;28;20222;-66
2023/01/17 15:05:54;;;;;;;10.75;9.63;;;;;;;;;;5095038;28;20228;-66
2023/01/17 15:08:22;;;;;;;14.82;10.70;;;;;;;;;;5094942;28;20223;-66
2023/01/17 15:10:53;;;;;;;12.98;9.10;;;;;;;;;;5094565;28;20285;-66
2023/01/17 15:13:22;;;;;;;17.90;10.38;;;;;;;;;;5094907;28;20224;-66
2023/01/17 15:15:50;;;;;;;17.63;10.10;;;;;;;;;;5095085;28;20214;-65
2023/01/17 15:18:25;;;;;;;19.60;9.18;;;;;;;;;;5095279;28;20199;-66
2023/01/17 15:20:58;;;;;;;14.70;9.02;;;;;;;;;;5095128;28;20198;-65
2023/01/17 15:23:28;;;;;;;16.40;9.88;;;;;;;;;;5095115;28;20534;-64
2023/01/17 15:25:56;;;;;;;15.68;9.85;;;;;;;;;;5095405;28;20215;-64
2023/01/17 15:28:23;;;;;;;14.23;10.85;;;;;;;;;;5094662;28;20217;-66
2023/01/17 15:31:09;;;;;;;13.40;9.23;;;;;;;;;;5094823;28;20568;-64
2023/01/17 15:33:39;;;;;;;14.73;9.65;;;;;;;;;;5094652;28;20274;-64
2023/01/17 15:36:08;;;;;;;15.43;10.65;;;;;;;;;;5095035;28;20203;-65
2023/01/17 15:38:37;;;;;;;30.13;10.73;;;;;;;;;;5094728;28;20196;-64
2023/01/17 15:41:12;;;;;;;19.10;10.45;;;;;;;;;;5094611;28;20194;-64
2023/01/17 15:43:40;;;;;;;18.67;10.32;;;;;;;;;;5094960;28;20252;-66
2023/01/17 15:46:07;;;;;;;17.08;11.35;;;;;;;;;;5094447;28;20203;-64
2023/01/17 15:48:40;;;;;;;17.70;10.95;;;;;;;;;;5094432;28;20231;-64
2023/01/17 15:51:07;;;;;;;16.17;9.93;;;;;;;;;;5094861;28;20187;-64
2023/01/17 15:53:36;;;;;;;17.48;11.75;;;;;;;;;;5094461;28;20196;-65
2023/01/17 15:56:20;;;;;;;17.73;10.75;;;;;;;;;;5094410;28;20248;-65
2023/01/17 15:58:48;;;;;;;20.45;10.70;;;;;;;;;;5094509;28;20205;-65
2023/01/17 16:01:17;;;;;;;16.48;10.27;;;;;;;;;;5094710;28;20195;-65
2023/01/17 16:03:54;;;;;;;14.27;10.75;;;;;;;;;;5094067;28;20269;-74
2023/01/17 16:06:37;;;;;;;19.15;13.02;;;;;;;;;;5094011;28;20195;-65
2023/01/17 16:09:04;;;;;;;18.80;11.60;;;;;;;;;;5094155;28;20294;-65
2023/01/17 16:11:31;;;;;;;18.63;11.05;;;;;;;;;;5094031;28;20590;-68
2023/01/17 16:13:59;;;;;;;20.27;12.07;;;;;;;;;;5093971;28;20190;-65
2023/01/17 16:16:26;;;;;;;17.55;12.70;;;;;;;;;;5093543;28;20201;-66